createdAt,value
2018-07-10T06:52:42.903Z,74.75
2018-07-10T06:55:14.960Z,77.90
2018-07-10T06:57:52.786Z,79.39
2018-07-10T07:00:21.892Z,79.21
2018-07-10T07:02:51.045Z,78.91
2018-07-10T07:05:20.133Z,78.64
2018-07-10T07:07:49.471Z,79.31
2018-07-10T07:10:18.666Z,79.42
2018-07-10T07:12:48.109Z,79.16
2018-07-10T07:15:19.033Z,79.60
2018-07-10T07:17:49.304Z,78.74
2018-07-10T07:20:20.121Z,79.34
2018-07-10T07:22:50.281Z,79.47
2018-07-10T07:25:19.429Z,79.94
2018-07-10T07:27:48.545Z,79.83
2018-07-10T07:30:17.729Z,79.88
2018-07-10T07:32:46.972Z,79.85
2018-07-10T07:35:16.256Z,80.07
2018-07-10T07:37:45.381Z,79.94
2018-07-10T07:40:14.466Z,80.26
2018-07-10T07:42:43.564Z,80.07
2018-07-10T07:45:12.676Z,79.51
2018-07-10T07:47:41.829Z,79.06
2018-07-10T07:50:10.930Z,78.47
2018-07-10T07:52:40.137Z,78.55
2018-07-10T07:55:09.216Z,77.60
2018-07-10T07:57:38.315Z,78.03
2018-07-10T08:00:07.438Z,77.87
2018-07-10T08:02:36.577Z,77.13
2018-07-10T08:05:05.757Z,77.37
2018-07-10T08:07:34.857Z,78.37
2018-07-10T08:10:03.986Z,77.98
2018-07-10T08:12:33.088Z,77.16
2018-07-10T08:15:03.616Z,78.39
2018-07-10T08:17:36.208Z,77.89
2018-07-10T08:20:06.230Z,77.74
2018-07-10T08:22:35.354Z,78.65
2018-07-10T08:25:05.835Z,78.60
2018-07-10T08:27:36.730Z,78.00
2018-07-10T08:30:05.958Z,78.17
2018-07-10T08:32:36.434Z,78.73
2018-07-10T08:35:05.584Z,78.07
2018-07-10T08:37:34.673Z,78.45
2018-07-10T08:40:03.791Z,78.86
2018-07-10T08:42:32.948Z,78.50
2018-07-10T08:45:02.102Z,78.72
2018-07-10T08:47:31.223Z,78.67
2018-07-10T08:50:00.341Z,78.22
2018-07-10T08:52:29.456Z,78.57
2018-07-10T08:54:58.592Z,79.09
2018-07-10T08:57:28.412Z,78.79
2018-07-10T08:59:57.915Z,79.02
2018-07-10T09:02:26.978Z,78.88
2018-07-10T09:04:56.106Z,79.65
2018-07-10T09:07:25.224Z,79.70
2018-07-10T09:09:54.350Z,79.43
2018-07-10T09:12:23.469Z,80.04
2018-07-10T09:14:52.618Z,78.68
2018-07-10T09:17:21.713Z,78.34
2018-07-10T09:19:50.861Z,79.08
2018-07-10T09:22:20.005Z,78.99
2018-07-10T09:24:52.151Z,78.81
2018-07-10T09:27:30.048Z,78.75
2018-07-10T09:29:59.204Z,79.04
2018-07-10T09:32:33.707Z,78.31
2018-07-10T09:35:02.807Z,79.56
2018-07-10T09:37:38.237Z,78.94
2018-07-10T09:40:12.659Z,79.28
2018-07-10T09:43:15.229Z,80.17
2018-07-10T09:45:44.369Z,80.38
2018-07-10T09:48:13.456Z,80.34
2018-07-10T09:50:42.670Z,80.92
2018-07-10T09:53:11.803Z,80.54
2018-07-10T09:55:40.957Z,79.81
2018-07-10T09:58:11.645Z,79.66
2018-07-10T10:00:46.013Z,80.05
2018-07-10T10:03:15.136Z,79.89
2018-07-10T10:05:45.253Z,80.71
2018-07-10T10:08:14.380Z,81.78
2018-07-10T10:10:43.457Z,81.22
2018-07-10T10:13:12.591Z,80.67
2018-07-10T10:15:42.009Z,80.16
2018-07-10T10:18:11.178Z,80.56
2018-07-10T10:20:41.796Z,79.59
2018-07-10T10:23:12.973Z,79.37
2018-07-10T10:25:43.552Z,79.73
2018-07-10T10:28:12.588Z,80.49
2018-07-10T10:30:41.676Z,79.61
2018-07-10T10:33:11.392Z,80.48
2018-07-10T10:35:40.544Z,81.36
2018-07-10T10:38:09.620Z,81.09
2018-07-10T10:40:40.092Z,80.34
2018-07-10T10:43:12.199Z,80.04
2018-07-10T10:45:43.912Z,79.42
2018-07-10T10:48:15.149Z,80.04
2018-07-10T10:50:51.485Z,80.28
2018-07-10T10:53:21.455Z,79.11
2018-07-10T10:55:50.597Z,80.27
2018-07-10T10:58:21.439Z,79.27
2018-07-10T11:00:50.629Z,80.35
2018-07-10T11:03:19.799Z,79.08
2018-07-10T11:05:48.907Z,80.36
2018-07-10T11:08:19.418Z,79.26
2018-07-10T11:10:48.660Z,78.80
2018-07-10T11:13:18.504Z,80.09
2018-07-10T11:15:49.757Z,80.62
2018-07-10T11:18:30.601Z,79.77
2018-07-10T11:21:37.663Z,79.44
2018-07-10T11:24:07.402Z,80.62
2018-07-10T11:26:41.206Z,79.97
2018-07-10T11:29:10.824Z,80.38
2018-07-10T11:31:41.264Z,80.34
2018-07-10T11:34:10.381Z,80.41
2018-07-10T11:36:39.476Z,80.66
2018-07-10T11:39:11.273Z,79.97
2018-07-10T11:41:44.936Z,80.93
2018-07-10T11:44:14.050Z,80.61
2018-07-10T11:46:43.131Z,80.94
2018-07-10T11:49:12.235Z,80.26
2018-07-10T11:51:41.373Z,80.46
2018-07-10T11:54:10.485Z,80.46
2018-07-10T11:56:39.653Z,80.55
2018-07-10T11:59:08.822Z,80.80
2018-07-10T12:01:38.973Z,80.31
2018-07-10T12:04:08.109Z,80.32
2018-07-10T12:06:45.888Z,79.59
2018-07-10T12:18:53.713Z,79.63
2018-07-10T12:21:23.133Z,81.83
2018-07-10T12:23:52.575Z,81.72
2018-07-10T12:26:22.542Z,81.61
2018-07-10T12:28:52.153Z,82.37
2018-07-10T12:31:21.279Z,82.41
2018-07-10T12:33:50.365Z,82.31
2018-07-10T12:36:19.476Z,81.22
2018-07-10T12:38:48.582Z,81.42
2018-07-10T12:41:17.680Z,82.62
2018-07-10T12:43:46.777Z,84.28
2018-07-10T12:46:15.883Z,83.98
2018-07-10T12:48:45.008Z,84.15
2018-07-10T12:51:14.136Z,83.87
2018-07-10T12:53:43.245Z,83.66
2018-07-10T12:56:12.535Z,83.16
2018-07-10T12:58:43.088Z,82.55
2018-07-10T13:01:12.241Z,81.63
2018-07-10T13:03:41.349Z,81.24
2018-07-10T13:06:10.477Z,80.81
2018-07-10T13:08:39.574Z,80.87
2018-07-10T13:11:08.699Z,80.96
2018-07-10T13:13:38.786Z,82.30
2018-07-10T13:16:08.350Z,82.92
2018-07-10T13:18:37.771Z,82.26
2018-07-10T13:21:07.543Z,79.54
2018-07-10T13:23:37.719Z,79.09
2018-07-10T13:26:07.737Z,79.69
2018-07-10T13:28:37.891Z,80.78
2018-07-10T13:31:07.982Z,80.90
2018-07-10T13:33:37.580Z,80.72
2018-07-10T13:36:07.661Z,80.31
2018-07-10T13:38:36.779Z,79.47
2018-07-10T13:41:05.872Z,80.34
2018-07-10T13:43:34.984Z,79.43
2018-07-10T13:46:04.073Z,78.74
2018-07-10T13:48:33.176Z,77.99
2018-07-10T13:51:02.259Z,77.92
2018-07-10T13:53:31.364Z,78.33
2018-07-10T13:56:00.478Z,77.66
2018-07-10T13:58:31.464Z,77.52
2018-07-10T14:01:08.308Z,77.11
2018-07-10T14:03:37.933Z,76.68
2018-07-10T14:06:07.441Z,75.54
2018-07-10T14:08:36.582Z,75.94
2018-07-10T14:11:05.688Z,76.77
2018-07-10T14:13:34.801Z,77.06
2018-07-10T14:16:03.998Z,77.42
2018-07-10T14:18:33.123Z,77.33
2018-07-10T14:21:03.896Z,77.46
2018-07-10T14:23:33.037Z,76.98
2018-07-10T14:26:02.140Z,76.83
2018-07-10T14:28:31.221Z,76.78
2018-07-10T14:31:00.476Z,76.75
2018-07-10T14:33:29.565Z,75.78
2018-07-10T14:35:58.666Z,75.63
2018-07-10T14:38:29.485Z,76.47
2018-07-10T14:41:00.269Z,77.76
2018-07-10T14:43:33.284Z,78.95
2018-07-10T14:46:07.820Z,77.33
2018-07-10T14:48:45.694Z,77.36
2018-07-10T14:51:17.928Z,77.65
2018-07-10T14:53:47.112Z,77.33
2018-07-10T14:56:17.021Z,77.12
2018-07-10T14:58:46.246Z,77.43
2018-07-10T15:01:16.053Z,76.98
2018-07-10T15:03:45.124Z,77.96
2018-07-10T15:06:14.253Z,77.93
2018-07-10T15:08:43.496Z,77.24
2018-07-10T15:11:12.612Z,78.29
2018-07-10T15:13:53.067Z,76.56
2018-07-10T15:16:22.202Z,77.22
2018-07-10T15:18:52.312Z,77.02
2018-07-10T15:21:23.068Z,76.82
2018-07-10T15:23:52.215Z,76.18
2018-07-10T15:26:21.339Z,75.08
2018-07-10T15:28:50.440Z,75.29
2018-07-10T15:31:19.535Z,75.63
2018-07-10T15:33:48.630Z,77.82
2018-07-10T15:36:18.401Z,78.37
2018-07-10T15:38:47.501Z,79.40
2018-07-10T15:41:16.712Z,80.42
2018-07-10T15:43:46.128Z,80.46
2018-07-10T15:46:15.331Z,79.29
2018-07-10T15:48:44.428Z,79.52
2018-07-10T15:51:13.935Z,78.10
2018-07-10T15:53:43.008Z,77.56
2018-07-10T15:56:12.128Z,75.95
2018-07-10T15:58:41.279Z,76.31
2018-07-10T16:01:10.361Z,76.61
2018-07-10T16:03:39.457Z,76.17
2018-07-10T16:06:08.600Z,76.67
2018-07-10T16:08:38.516Z,76.71
2018-07-10T16:11:07.671Z,76.88
2018-07-10T16:13:39.680Z,76.67
2018-07-10T16:16:10.074Z,78.45
2018-07-10T16:18:41.396Z,77.62
2018-07-10T16:21:11.165Z,77.48
2018-07-10T16:23:40.325Z,77.78
2018-07-10T16:26:15.108Z,78.00
2018-07-10T16:28:44.683Z,76.52
2018-07-10T16:31:18.513Z,76.01
2018-07-10T16:33:47.596Z,76.80
2018-07-10T16:36:17.437Z,75.29
2018-07-10T16:38:46.596Z,75.34
2018-07-10T16:41:22.633Z,76.52
2018-07-10T16:43:52.652Z,75.76
2018-07-10T16:46:24.069Z,75.30
2018-07-10T16:48:59.276Z,75.78
2018-07-10T16:51:31.745Z,76.06
2018-07-10T16:54:01.953Z,75.99
2018-07-10T16:56:31.049Z,76.24
2018-07-10T16:59:01.133Z,76.05
2018-07-10T17:01:30.220Z,77.03
2018-07-10T17:04:01.330Z,78.02
2018-07-10T17:06:30.400Z,77.60
2018-07-10T17:08:59.532Z,78.22
2018-07-10T17:11:28.608Z,77.66
2018-07-10T17:13:57.711Z,78.36
2018-07-10T17:16:27.652Z,78.00
2018-07-10T17:18:57.018Z,78.25
2018-07-10T17:21:27.523Z,78.34
2018-07-10T17:23:57.838Z,77.45
2018-07-10T17:26:26.912Z,76.93
2018-07-10T17:28:56.029Z,76.72
2018-07-10T17:31:25.124Z,76.18
2018-07-10T17:33:54.243Z,75.84
2018-07-10T17:36:23.327Z,75.99
2018-07-10T17:38:52.426Z,75.67
2018-07-10T17:41:21.529Z,76.78
2018-07-10T17:43:50.648Z,77.46
2018-07-10T17:46:19.792Z,77.24
2018-07-10T17:48:48.915Z,77.33
2018-07-10T17:51:18.024Z,78.21
2018-07-10T17:53:47.099Z,78.78
2018-07-10T17:56:16.219Z,77.30
2018-07-10T17:58:45.317Z,77.83
2018-07-10T18:01:14.425Z,77.77
2018-07-10T18:03:43.512Z,78.12
2018-07-10T18:06:12.651Z,77.94
2018-07-10T18:08:41.716Z,78.12
2018-07-10T18:11:10.848Z,78.27
2018-07-10T18:13:39.928Z,79.03
2018-07-10T18:16:09.411Z,79.69
2018-07-10T18:18:38.484Z,78.59
2018-07-10T18:21:07.582Z,79.77
2018-07-10T18:23:36.921Z,79.03
2018-07-10T18:26:06.041Z,79.00
2018-07-10T18:28:35.107Z,79.97
2018-07-10T18:31:04.213Z,78.06
2018-07-10T18:33:33.292Z,79.23
2018-07-10T18:36:02.798Z,78.76
2018-07-10T18:38:31.998Z,80.00
2018-07-10T18:41:02.151Z,79.73
2018-07-10T18:43:31.240Z,80.58
2018-07-10T18:46:00.343Z,81.50
2018-07-10T18:48:29.627Z,81.56
2018-07-10T18:50:58.625Z,79.41
2018-07-10T18:53:27.816Z,79.82
2018-07-10T18:55:56.956Z,79.44
2018-07-10T18:58:29.640Z,79.86
2018-07-10T19:01:04.885Z,78.25
2018-07-10T19:03:35.574Z,79.14
2018-07-10T19:06:08.357Z,77.80
2018-07-10T19:08:38.972Z,78.35
2018-07-10T19:11:08.751Z,78.84
2018-07-10T19:13:37.892Z,77.90
2018-07-10T19:16:06.982Z,77.85
2018-07-10T19:18:36.109Z,79.33
2018-07-10T19:21:32.784Z,78.03
2018-07-10T19:24:05.465Z,78.05
2018-07-10T19:26:36.668Z,78.36
2018-07-10T19:29:11.747Z,78.12
2018-07-10T19:31:40.856Z,78.93
2018-07-10T19:34:10.021Z,78.70
2018-07-10T19:36:39.121Z,78.54
2018-07-10T19:39:08.608Z,78.55
2018-07-10T19:41:37.692Z,78.60
2018-07-10T19:44:06.809Z,79.20
2018-07-10T19:46:36.536Z,80.27
2018-07-10T19:49:06.444Z,80.03
2018-07-10T19:51:35.553Z,81.12
2018-07-10T19:54:08.392Z,81.58
2018-07-10T19:56:37.614Z,81.61
2018-07-10T19:59:07.794Z,81.76
2018-07-10T20:01:50.750Z,80.41
2018-07-10T20:04:24.809Z,81.35
2018-07-10T20:07:15.175Z,81.21
2018-07-10T20:09:47.609Z,81.64
2018-07-10T20:12:20.284Z,81.45
2018-07-10T20:14:58.521Z,80.65
2018-07-10T20:17:31.127Z,80.14
2018-07-10T20:20:08.536Z,79.74
2018-07-10T20:23:17.281Z,79.80
2018-07-10T20:26:03.448Z,80.04
2018-07-10T20:28:42.237Z,79.64
2018-07-10T20:31:26.035Z,78.99
2018-07-10T20:34:51.904Z,79.69
2018-07-10T20:37:25.974Z,79.02
2018-07-10T20:39:55.140Z,78.65
2018-07-10T20:42:24.648Z,78.60
2018-07-10T20:44:59.747Z,79.02
2018-07-10T20:47:40.445Z,79.00
2018-07-10T20:50:09.564Z,78.77
2018-07-10T20:52:46.596Z,79.32
2018-07-10T20:55:15.758Z,79.17
2018-07-10T20:58:00.627Z,78.71
2018-07-10T21:00:34.726Z,78.82
2018-07-10T21:04:13.884Z,79.60
2018-07-10T21:07:01.604Z,79.35
2018-07-10T21:10:43.960Z,78.67
2018-07-10T21:13:19.496Z,79.63
2018-07-10T21:16:02.499Z,79.89
2018-07-10T21:18:45.552Z,79.59
2018-07-10T21:21:26.833Z,78.97
2018-07-10T21:24:02.296Z,79.30
2018-07-10T21:27:05.468Z,80.14
2018-07-10T21:29:46.889Z,79.94
2018-07-10T21:32:28.788Z,79.51
2018-07-10T21:35:02.081Z,79.44
2018-07-10T21:37:40.408Z,78.90
2018-07-10T21:40:24.486Z,78.99
2018-07-10T21:43:10.365Z,80.20
2018-07-10T21:45:58.201Z,80.78
2018-07-10T21:48:40.597Z,80.69
2018-07-10T21:51:09.748Z,80.39
2018-07-10T21:53:38.876Z,80.53
2018-07-10T21:56:08.054Z,80.90
2018-07-10T21:58:37.237Z,81.00
2018-07-10T22:01:49.805Z,81.85
2018-07-10T22:04:21.031Z,82.52
2018-07-10T22:06:52.415Z,82.28
2018-07-10T22:09:23.953Z,81.16
2018-07-10T22:11:53.374Z,81.33
2018-07-10T22:14:22.661Z,81.29
2018-07-10T22:16:51.776Z,81.71
2018-07-10T22:19:25.618Z,81.89
2018-07-10T22:21:55.603Z,81.65
2018-07-10T22:24:26.168Z,80.61
2018-07-10T22:26:58.037Z,80.96
2018-07-10T22:29:32.876Z,81.15
2018-07-10T22:32:06.160Z,80.77
2018-07-10T22:34:35.287Z,81.11
2018-07-10T22:37:04.392Z,81.36
2018-07-10T22:39:33.837Z,80.94
2018-07-10T22:42:02.973Z,80.87
2018-07-10T22:44:35.396Z,80.79
2018-07-10T22:47:05.201Z,80.71
2018-07-10T22:49:34.260Z,80.84
2018-07-10T22:52:04.053Z,80.80
2018-07-10T22:54:34.860Z,81.19
2018-07-10T22:57:06.400Z,82.07
2018-07-10T22:59:35.477Z,82.04
2018-07-10T23:02:04.572Z,82.02
2018-07-10T23:04:33.376Z,81.58
2018-07-10T23:07:02.203Z,81.74
2018-07-10T23:09:31.006Z,81.42
2018-07-10T23:11:59.908Z,81.17
2018-07-10T23:14:28.721Z,81.26
2018-07-10T23:16:57.584Z,81.34
2018-07-10T23:19:27.278Z,80.85
2018-07-10T23:21:56.088Z,81.11
2018-07-10T23:24:24.904Z,81.55
2018-07-10T23:26:53.706Z,80.77
2018-07-10T23:29:35.912Z,80.41
2018-07-10T23:32:05.970Z,80.54
2018-07-10T23:34:34.800Z,80.26
2018-07-10T23:37:05.480Z,79.89
2018-07-10T23:39:45.135Z,80.06
2018-07-10T23:42:37.163Z,80.32
2018-07-10T23:45:09.888Z,79.90
2018-07-10T23:47:40.792Z,79.74
2018-07-10T23:50:17.491Z,79.55
2018-07-10T23:53:52.868Z,80.15
2018-07-10T23:56:22.144Z,80.87
2018-07-10T23:58:51.567Z,80.14
